sensor_id;sensor_type;location;lat;lon;timestamp;P1;durP1;ratioP1;P2;durP2;ratioP2
73456;SDS011;61691;53.072;6.582;2023-06-04T00:01:33;16.95;;;4.30;;
73456;SDS011;61691;53.072;6.582;2023-06-04T00:04:00;16.60;;;4.47;;
73456;SDS011;61691;53.072;6.582;2023-06-04T00:06:27;15.75;;;4.10;;
73456;SDS011;61691;53.072;6.582;2023-06-04T00:08:54;17.73;;;3.95;;
73456;SDS011;61691;53.072;6.582;2023-06-04T00:11:21;17.98;;;4.30;;
73456;SDS011;61691;53.072;6.582;2023-06-04T00:13:48;18.08;;;4.20;;
73456;SDS011;61691;53.072;6.582;2023-06-04T00:16:15;16.63;;;4.30;;
73456;SDS011;61691;53.072;6.582;2023-06-04T00:18:41;19.05;;;3.70;;
73456;SDS011;61691;53.072;6.582;2023-06-04T00:21:08;16.08;;;3.80;;
73456;SDS011;61691;53.072;6.582;2023-06-04T00:23:35;19.75;;;3.92;;
73456;SDS011;61691;53.072;6.582;2023-06-04T00:26:02;19.00;;;4.93;;
73456;SDS011;61691;53.072;6.582;2023-06-04T00:28:29;15.40;;;3.95;;
73456;SDS011;61691;53.072;6.582;2023-06-04T00:30:56;15.48;;;4.05;;
73456;SDS011;61691;53.072;6.582;2023-06-04T00:33:23;18.33;;;4.40;;
73456;SDS011;61691;53.072;6.582;2023-06-04T00:35:49;15.30;;;3.92;;
73456;SDS011;61691;53.072;6.582;2023-06-04T00:38:16;19.42;;;4.10;;
73456;SDS011;61691;53.072;6.582;2023-06-04T00:40:43;15.88;;;3.50;;
73456;SDS011;61691;53.072;6.582;2023-06-04T00:43:10;17.02;;;3.83;;
73456;SDS011;61691;53.072;6.582;2023-06-04T00:45:37;20.20;;;5.32;;
73456;SDS011;61691;53.072;6.582;2023-06-04T00:48:04;14.80;;;3.78;;
73456;SDS011;61691;53.072;6.582;2023-06-04T00:50:32;17.13;;;3.72;;
73456;SDS011;61691;53.072;6.582;2023-06-04T00:52:59;17.88;;;4.07;;
73456;SDS011;61691;53.072;6.582;2023-06-04T00:55:26;15.65;;;3.95;;
73456;SDS011;61691;53.072;6.582;2023-06-04T00:57:54;15.52;;;3.97;;
73456;SDS011;61691;53.072;6.582;2023-06-04T01:00:20;18.10;;;3.78;;
73456;SDS011;61691;53.072;6.582;2023-06-04T01:02:49;17.02;;;3.80;;
73456;SDS011;61691;53.072;6.582;2023-06-04T01:05:21;16.80;;;4.05;;
73456;SDS011;61691;53.072;6.582;2023-06-04T01:07:59;17.65;;;3.80;;
73456;SDS011;61691;53.072;6.582;2023-06-04T01:10:26;17.10;;;3.33;;
73456;SDS011;61691;53.072;6.582;2023-06-04T01:12:53;18.23;;;4.72;;
73456;SDS011;61691;53.072;6.582;2023-06-04T01:15:20;16.90;;;3.92;;
73456;SDS011;61691;53.072;6.582;2023-06-04T01:17:48;14.57;;;3.83;;
73456;SDS011;61691;53.072;6.582;2023-06-04T01:23:14;18.38;;;4.18;;
73456;SDS011;61691;53.072;6.582;2023-06-04T01:25:41;17.50;;;4.15;;
73456;SDS011;61691;53.072;6.582;2023-06-04T01:28:11;17.92;;;4.38;;
73456;SDS011;61691;53.072;6.582;2023-06-04T01:30:40;17.42;;;4.05;;
73456;SDS011;61691;53.072;6.582;2023-06-04T01:33:16;18.75;;;4.10;;
73456;SDS011;61691;53.072;6.582;2023-06-04T01:35:44;16.80;;;3.20;;
73456;SDS011;61691;53.072;6.582;2023-06-04T01:38:10;19.75;;;4.15;;
73456;SDS011;61691;53.072;6.582;2023-06-04T01:40:37;15.23;;;3.83;;
73456;SDS011;61691;53.072;6.582;2023-06-04T01:43:04;16.98;;;3.90;;
73456;SDS011;61691;53.072;6.582;2023-06-04T01:45:31;16.15;;;4.03;;
73456;SDS011;61691;53.072;6.582;2023-06-04T01:48:00;15.45;;;3.92;;
73456;SDS011;61691;53.072;6.582;2023-06-04T01:50:31;17.40;;;4.07;;
73456;SDS011;61691;53.072;6.582;2023-06-04T01:52:58;16.55;;;4.85;;
73456;SDS011;61691;53.072;6.582;2023-06-04T01:55:26;16.92;;;4.50;;
73456;SDS011;61691;53.072;6.582;2023-06-04T01:57:54;20.25;;;4.78;;
73456;SDS011;61691;53.072;6.582;2023-06-04T02:00:21;19.90;;;5.10;;
73456;SDS011;61691;53.072;6.582;2023-06-04T02:02:48;20.58;;;4.50;;
73456;SDS011;61691;53.072;6.582;2023-06-04T02:05:15;18.65;;;5.18;;
73456;SDS011;61691;53.072;6.582;2023-06-04T02:07:43;17.85;;;4.00;;
73456;SDS011;61691;53.072;6.582;2023-06-04T02:10:12;18.20;;;4.55;;
73456;SDS011;61691;53.072;6.582;2023-06-04T02:15:39;20.23;;;4.07;;
73456;SDS011;61691;53.072;6.582;2023-06-04T02:18:13;18.35;;;4.50;;
73456;SDS011;61691;53.072;6.582;2023-06-04T02:20:44;22.45;;;5.72;;
73456;SDS011;61691;53.072;6.582;2023-06-04T02:23:11;21.90;;;5.20;;
73456;SDS011;61691;53.072;6.582;2023-06-04T02:25:39;17.20;;;4.47;;
73456;SDS011;61691;53.072;6.582;2023-06-04T02:28:06;18.05;;;4.47;;
73456;SDS011;61691;53.072;6.582;2023-06-04T02:30:34;16.48;;;4.10;;
73456;SDS011;61691;53.072;6.582;2023-06-04T02:33:01;20.38;;;4.88;;
73456;SDS011;61691;53.072;6.582;2023-06-04T02:35:28;17.98;;;4.70;;
73456;SDS011;61691;53.072;6.582;2023-06-04T02:37:55;16.95;;;4.25;;
73456;SDS011;61691;53.072;6.582;2023-06-04T02:40:24;20.17;;;4.80;;
73456;SDS011;61691;53.072;6.582;2023-06-04T02:42:52;20.05;;;4.90;;
73456;SDS011;61691;53.072;6.582;2023-06-04T02:45:19;16.70;;;4.35;;
73456;SDS011;61691;53.072;6.582;2023-06-04T02:47:46;18.35;;;5.15;;
73456;SDS011;61691;53.072;6.582;2023-06-04T02:50:14;18.13;;;4.40;;
73456;SDS011;61691;53.072;6.582;2023-06-04T02:55:11;18.35;;;4.72;;
73456;SDS011;61691;53.072;6.582;2023-06-04T02:57:41;19.58;;;4.70;;
73456;SDS011;61691;53.072;6.582;2023-06-04T03:00:10;16.88;;;4.30;;
73456;SDS011;61691;53.072;6.582;2023-06-04T03:02:39;19.40;;;5.67;;
73456;SDS011;61691;53.072;6.582;2023-06-04T03:05:08;20.95;;;4.50;;
73456;SDS011;61691;53.072;6.582;2023-06-04T03:07:37;20.20;;;5.00;;
73456;SDS011;61691;53.072;6.582;2023-06-04T03:10:04;17.00;;;4.75;;
73456;SDS011;61691;53.072;6.582;2023-06-04T03:12:31;17.95;;;4.57;;
73456;SDS011;61691;53.072;6.582;2023-06-04T03:14:58;22.27;;;5.07;;
73456;SDS011;61691;53.072;6.582;2023-06-04T03:17:25;20.27;;;6.43;;
73456;SDS011;61691;53.072;6.582;2023-06-04T03:19:52;19.15;;;5.10;;
73456;SDS011;61691;53.072;6.582;2023-06-04T03:22:19;21.45;;;5.68;;
73456;SDS011;61691;53.072;6.582;2023-06-04T03:24:46;16.95;;;4.88;;
73456;SDS011;61691;53.072;6.582;2023-06-04T03:27:13;20.23;;;5.38;;
73456;SDS011;61691;53.072;6.582;2023-06-04T03:29:40;17.08;;;5.10;;
73456;SDS011;61691;53.072;6.582;2023-06-04T03:32:07;18.63;;;5.47;;
73456;SDS011;61691;53.072;6.582;2023-06-04T03:34:34;21.85;;;5.38;;
73456;SDS011;61691;53.072;6.582;2023-06-04T03:37:01;18.42;;;5.05;;
73456;SDS011;61691;53.072;6.582;2023-06-04T03:39:28;19.25;;;5.00;;
73456;SDS011;61691;53.072;6.582;2023-06-04T03:41:54;18.50;;;4.90;;
73456;SDS011;61691;53.072;6.582;2023-06-04T03:44:21;18.90;;;5.57;;
73456;SDS011;61691;53.072;6.582;2023-06-04T03:46:49;26.65;;;5.95;;
73456;SDS011;61691;53.072;6.582;2023-06-04T03:49:16;19.85;;;5.15;;
73456;SDS011;61691;53.072;6.582;2023-06-04T03:51:43;23.13;;;5.45;;
73456;SDS011;61691;53.072;6.582;2023-06-04T03:54:10;21.85;;;6.07;;
73456;SDS011;61691;53.072;6.582;2023-06-04T03:56:38;20.50;;;5.03;;
73456;SDS011;61691;53.072;6.582;2023-06-04T03:59:05;17.13;;;4.68;;
73456;SDS011;61691;53.072;6.582;2023-06-04T04:01:32;17.35;;;5.18;;
73456;SDS011;61691;53.072;6.582;2023-06-04T04:03:59;20.02;;;5.30;;
73456;SDS011;61691;53.072;6.582;2023-06-04T04:06:27;18.95;;;5.78;;
73456;SDS011;61691;53.072;6.582;2023-06-04T04:08:53;21.23;;;6.53;;
73456;SDS011;61691;53.072;6.582;2023-06-04T04:11:20;19.60;;;5.93;;
73456;SDS011;61691;53.072;6.582;2023-06-04T04:13:48;18.75;;;5.40;;
73456;SDS011;61691;53.072;6.582;2023-06-04T04:16:14;17.40;;;4.90;;
73456;SDS011;61691;53.072;6.582;2023-06-04T04:18:42;18.00;;;5.65;;
73456;SDS011;61691;53.072;6.582;2023-06-04T04:21:12;20.40;;;5.15;;
73456;SDS011;61691;53.072;6.582;2023-06-04T04:23:39;17.80;;;4.82;;
73456;SDS011;61691;53.072;6.582;2023-06-04T04:26:07;25.88;;;5.70;;
73456;SDS011;61691;53.072;6.582;2023-06-04T04:28:34;18.80;;;4.88;;
73456;SDS011;61691;53.072;6.582;2023-06-04T04:31:01;19.00;;;5.32;;
73456;SDS011;61691;53.072;6.582;2023-06-04T04:33:29;19.40;;;4.80;;
73456;SDS011;61691;53.072;6.582;2023-06-04T04:35:58;17.23;;;4.63;;
73456;SDS011;61691;53.072;6.582;2023-06-04T04:38:26;16.48;;;4.50;;
73456;SDS011;61691;53.072;6.582;2023-06-04T04:40:55;22.98;;;5.03;;
73456;SDS011;61691;53.072;6.582;2023-06-04T04:46:01;17.08;;;4.80;;
73456;SDS011;61691;53.072;6.582;2023-06-04T04:48:28;20.73;;;4.07;;
73456;SDS011;61691;53.072;6.582;2023-06-04T04:50:54;15.63;;;3.75;;
73456;SDS011;61691;53.072;6.582;2023-06-04T04:53:21;16.90;;;4.53;;
73456;SDS011;61691;53.072;6.582;2023-06-04T04:55:48;19.33;;;3.75;;
73456;SDS011;61691;53.072;6.582;2023-06-04T04:58:15;17.90;;;4.28;;
73456;SDS011;61691;53.072;6.582;2023-06-04T05:00:42;17.80;;;3.50;;
73456;SDS011;61691;53.072;6.582;2023-06-04T05:03:09;16.38;;;3.40;;
73456;SDS011;61691;53.072;6.582;2023-06-04T05:05:36;16.35;;;3.70;;
73456;SDS011;61691;53.072;6.582;2023-06-04T05:08:02;18.42;;;3.20;;
73456;SDS011;61691;53.072;6.582;2023-06-04T05:10:30;17.45;;;3.50;;
73456;SDS011;61691;53.072;6.582;2023-06-04T05:12:57;17.80;;;3.53;;
73456;SDS011;61691;53.072;6.582;2023-06-04T05:15:25;16.70;;;3.30;;
73456;SDS011;61691;53.072;6.582;2023-06-04T05:17:53;16.63;;;3.08;;
73456;SDS011;61691;53.072;6.582;2023-06-04T05:20:20;14.45;;;3.20;;
73456;SDS011;61691;53.072;6.582;2023-06-04T05:22:47;15.27;;;3.05;;
73456;SDS011;61691;53.072;6.582;2023-06-04T05:25:16;15.95;;;3.17;;
73456;SDS011;61691;53.072;6.582;2023-06-04T05:27:43;16.05;;;3.85;;
73456;SDS011;61691;53.072;6.582;2023-06-04T05:30:10;17.90;;;3.50;;
73456;SDS011;61691;53.072;6.582;2023-06-04T05:32:37;15.88;;;3.50;;
73456;SDS011;61691;53.072;6.582;2023-06-04T05:35:07;18.92;;;3.75;;
73456;SDS011;61691;53.072;6.582;2023-06-04T05:37:35;19.15;;;3.40;;
73456;SDS011;61691;53.072;6.582;2023-06-04T05:40:04;17.13;;;4.00;;
73456;SDS011;61691;53.072;6.582;2023-06-04T05:42:32;16.42;;;3.47;;
73456;SDS011;61691;53.072;6.582;2023-06-04T05:44:59;17.48;;;3.35;;
73456;SDS011;61691;53.072;6.582;2023-06-04T05:47:27;16.88;;;3.72;;
73456;SDS011;61691;53.072;6.582;2023-06-04T05:49:57;18.95;;;3.58;;
73456;SDS011;61691;53.072;6.582;2023-06-04T05:52:24;15.40;;;3.80;;
73456;SDS011;61691;53.072;6.582;2023-06-04T05:54:51;18.08;;;4.15;;
73456;SDS011;61691;53.072;6.582;2023-06-04T05:57:18;16.45;;;3.53;;
73456;SDS011;61691;53.072;6.582;2023-06-04T05:59:45;15.98;;;3.65;;
73456;SDS011;61691;53.072;6.582;2023-06-04T06:02:12;16.30;;;3.67;;
73456;SDS011;61691;53.072;6.582;2023-06-04T06:04:39;18.23;;;4.32;;
73456;SDS011;61691;53.072;6.582;2023-06-04T06:07:06;17.92;;;3.70;;
73456;SDS011;61691;53.072;6.582;2023-06-04T06:09:34;16.40;;;3.67;;
73456;SDS011;61691;53.072;6.582;2023-06-04T06:12:02;16.60;;;3.38;;
73456;SDS011;61691;53.072;6.582;2023-06-04T06:14:29;16.05;;;3.35;;
73456;SDS011;61691;53.072;6.582;2023-06-04T06:16:56;18.13;;;3.38;;
73456;SDS011;61691;53.072;6.582;2023-06-04T06:19:22;16.58;;;3.38;;
73456;SDS011;61691;53.072;6.582;2023-06-04T06:21:49;16.95;;;3.40;;
73456;SDS011;61691;53.072;6.582;2023-06-04T06:24:16;15.63;;;3.13;;
73456;SDS011;61691;53.072;6.582;2023-06-04T06:26:43;16.35;;;3.25;;
73456;SDS011;61691;53.072;6.582;2023-06-04T06:29:10;16.33;;;3.50;;
73456;SDS011;61691;53.072;6.582;2023-06-04T06:31:37;17.85;;;3.65;;
73456;SDS011;61691;53.072;6.582;2023-06-04T06:34:04;15.13;;;3.55;;
73456;SDS011;61691;53.072;6.582;2023-06-04T06:36:30;14.15;;;3.40;;
73456;SDS011;61691;53.072;6.582;2023-06-04T06:38:59;18.05;;;3.45;;
73456;SDS011;61691;53.072;6.582;2023-06-04T06:41:26;20.23;;;3.10;;
73456;SDS011;61691;53.072;6.582;2023-06-04T06:43:52;14.57;;;3.03;;
73456;SDS011;61691;53.072;6.582;2023-06-04T06:46:19;16.15;;;3.05;;
73456;SDS011;61691;53.072;6.582;2023-06-04T06:48:46;17.42;;;3.63;;
73456;SDS011;61691;53.072;6.582;2023-06-04T06:51:14;14.52;;;2.78;;
73456;SDS011;61691;53.072;6.582;2023-06-04T06:53:41;13.65;;;2.88;;
73456;SDS011;61691;53.072;6.582;2023-06-04T06:56:08;15.80;;;2.80;;
73456;SDS011;61691;53.072;6.582;2023-06-04T06:58:35;14.60;;;2.80;;
73456;SDS011;61691;53.072;6.582;2023-06-04T07:01:02;16.30;;;2.85;;
73456;SDS011;61691;53.072;6.582;2023-06-04T07:03:29;14.20;;;2.30;;
73456;SDS011;61691;53.072;6.582;2023-06-04T07:05:56;17.25;;;2.75;;
73456;SDS011;61691;53.072;6.582;2023-06-04T07:08:23;14.85;;;2.53;;
73456;SDS011;61691;53.072;6.582;2023-06-04T07:10:50;17.38;;;2.92;;
73456;SDS011;61691;53.072;6.582;2023-06-04T07:13:17;12.57;;;2.17;;
73456;SDS011;61691;53.072;6.582;2023-06-04T07:15:43;13.70;;;2.45;;
73456;SDS011;61691;53.072;6.582;2023-06-04T07:18:10;9.35;;;2.08;;
73456;SDS011;61691;53.072;6.582;2023-06-04T07:20:37;18.08;;;2.83;;
73456;SDS011;61691;53.072;6.582;2023-06-04T07:23:04;16.15;;;3.22;;
73456;SDS011;61691;53.072;6.582;2023-06-04T07:25:31;12.55;;;2.45;;
73456;SDS011;61691;53.072;6.582;2023-06-04T07:27:57;13.25;;;2.50;;
73456;SDS011;61691;53.072;6.582;2023-06-04T07:30:27;16.17;;;2.70;;
73456;SDS011;61691;53.072;6.582;2023-06-04T07:32:54;13.63;;;2.60;;
73456;SDS011;61691;53.072;6.582;2023-06-04T07:35:21;15.48;;;2.28;;
73456;SDS011;61691;53.072;6.582;2023-06-04T07:37:48;13.43;;;2.33;;
73456;SDS011;61691;53.072;6.582;2023-06-04T07:40:16;14.10;;;2.53;;
73456;SDS011;61691;53.072;6.582;2023-06-04T07:42:44;9.38;;;2.33;;
73456;SDS011;61691;53.072;6.582;2023-06-04T07:45:12;12.13;;;2.17;;
73456;SDS011;61691;53.072;6.582;2023-06-04T07:47:38;13.20;;;2.28;;
73456;SDS011;61691;53.072;6.582;2023-06-04T07:50:05;13.68;;;2.38;;
73456;SDS011;61691;53.072;6.582;2023-06-04T07:52:33;12.85;;;2.40;;
73456;SDS011;61691;53.072;6.582;2023-06-04T07:55:00;12.98;;;2.22;;
73456;SDS011;61691;53.072;6.582;2023-06-04T07:57:27;11.50;;;2.15;;
73456;SDS011;61691;53.072;6.582;2023-06-04T07:59:54;13.40;;;2.63;;
73456;SDS011;61691;53.072;6.582;2023-06-04T08:02:20;12.73;;;2.30;;
73456;SDS011;61691;53.072;6.582;2023-06-04T08:04:47;13.07;;;2.20;;
73456;SDS011;61691;53.072;6.582;2023-06-04T08:07:14;13.25;;;2.40;;
73456;SDS011;61691;53.072;6.582;2023-06-04T08:09:41;11.18;;;2.22;;
73456;SDS011;61691;53.072;6.582;2023-06-04T08:12:10;10.48;;;1.90;;
73456;SDS011;61691;53.072;6.582;2023-06-04T08:14:37;10.27;;;1.95;;
73456;SDS011;61691;53.072;6.582;2023-06-04T08:17:03;10.20;;;2.05;;
73456;SDS011;61691;53.072;6.582;2023-06-04T08:19:30;10.57;;;1.95;;
73456;SDS011;61691;53.072;6.582;2023-06-04T08:21:57;9.93;;;2.20;;
73456;SDS011;61691;53.072;6.582;2023-06-04T08:24:24;12.95;;;2.40;;
73456;SDS011;61691;53.072;6.582;2023-06-04T08:26:51;12.13;;;2.13;;
73456;SDS011;61691;53.072;6.582;2023-06-04T08:29:18;11.90;;;2.40;;
73456;SDS011;61691;53.072;6.582;2023-06-04T08:31:45;12.77;;;2.10;;
73456;SDS011;61691;53.072;6.582;2023-06-04T08:34:12;11.60;;;2.28;;
73456;SDS011;61691;53.072;6.582;2023-06-04T08:36:38;11.93;;;2.42;;
73456;SDS011;61691;53.072;6.582;2023-06-04T08:39:05;10.88;;;2.20;;
73456;SDS011;61691;53.072;6.582;2023-06-04T08:41:45;9.98;;;1.98;;
73456;SDS011;61691;53.072;6.582;2023-06-04T08:44:18;12.98;;;3.13;;
73456;SDS011;61691;53.072;6.582;2023-06-04T08:46:44;14.48;;;2.63;;
73456;SDS011;61691;53.072;6.582;2023-06-04T08:49:17;10.13;;;2.00;;
73456;SDS011;61691;53.072;6.582;2023-06-04T08:51:47;13.63;;;2.30;;
73456;SDS011;61691;53.072;6.582;2023-06-04T08:54:15;11.45;;;2.60;;
73456;SDS011;61691;53.072;6.582;2023-06-04T08:56:41;13.25;;;2.38;;
73456;SDS011;61691;53.072;6.582;2023-06-04T08:59:10;11.13;;;2.15;;
73456;SDS011;61691;53.072;6.582;2023-06-04T09:01:37;10.15;;;2.08;;
73456;SDS011;61691;53.072;6.582;2023-06-04T09:04:05;8.68;;;2.10;;
73456;SDS011;61691;53.072;6.582;2023-06-04T09:06:37;11.90;;;2.10;;
73456;SDS011;61691;53.072;6.582;2023-06-04T09:09:06;9.45;;;2.08;;
73456;SDS011;61691;53.072;6.582;2023-06-04T09:11:37;5.18;;;1.70;;
73456;SDS011;61691;53.072;6.582;2023-06-04T09:14:08;12.65;;;2.83;;
73456;SDS011;61691;53.072;6.582;2023-06-04T09:16:47;10.13;;;2.00;;
73456;SDS011;61691;53.072;6.582;2023-06-04T09:19:16;11.98;;;2.40;;
73456;SDS011;61691;53.072;6.582;2023-06-04T09:24:22;12.00;;;2.33;;
73456;SDS011;61691;53.072;6.582;2023-06-04T09:27:11;10.23;;;1.90;;
73456;SDS011;61691;53.072;6.582;2023-06-04T09:29:39;12.55;;;2.28;;
73456;SDS011;61691;53.072;6.582;2023-06-04T09:32:07;8.93;;;2.05;;
73456;SDS011;61691;53.072;6.582;2023-06-04T09:34:33;13.82;;;2.50;;
73456;SDS011;61691;53.072;6.582;2023-06-04T09:37:00;10.13;;;2.03;;
73456;SDS011;61691;53.072;6.582;2023-06-04T09:39:27;11.43;;;1.90;;
73456;SDS011;61691;53.072;6.582;2023-06-04T09:41:58;11.20;;;2.45;;
73456;SDS011;61691;53.072;6.582;2023-06-04T09:44:26;11.18;;;1.77;;
73456;SDS011;61691;53.072;6.582;2023-06-04T09:46:55;9.43;;;2.10;;
73456;SDS011;61691;53.072;6.582;2023-06-04T09:49:23;8.65;;;1.90;;
73456;SDS011;61691;53.072;6.582;2023-06-04T09:51:50;10.65;;;1.95;;
73456;SDS011;61691;53.072;6.582;2023-06-04T09:54:17;9.88;;;2.00;;
73456;SDS011;61691;53.072;6.582;2023-06-04T09:56:44;9.25;;;1.80;;
73456;SDS011;61691;53.072;6.582;2023-06-04T09:59:11;8.55;;;1.85;;
73456;SDS011;61691;53.072;6.582;2023-06-04T10:01:40;9.52;;;1.83;;
73456;SDS011;61691;53.072;6.582;2023-06-04T10:04:08;10.60;;;2.10;;
73456;SDS011;61691;53.072;6.582;2023-06-04T10:06:38;8.40;;;2.00;;
73456;SDS011;61691;53.072;6.582;2023-06-04T10:09:06;10.13;;;2.60;;
73456;SDS011;61691;53.072;6.582;2023-06-04T10:11:47;8.95;;;2.08;;
73456;SDS011;61691;53.072;6.582;2023-06-04T10:14:19;12.25;;;2.13;;
73456;SDS011;61691;53.072;6.582;2023-06-04T10:16:49;14.52;;;2.28;;
73456;SDS011;61691;53.072;6.582;2023-06-04T10:19:18;11.60;;;2.10;;
73456;SDS011;61691;53.072;6.582;2023-06-04T10:21:45;10.70;;;2.10;;
73456;SDS011;61691;53.072;6.582;2023-06-04T10:24:12;9.35;;;1.70;;
73456;SDS011;61691;53.072;6.582;2023-06-04T10:26:41;10.20;;;2.03;;
73456;SDS011;61691;53.072;6.582;2023-06-04T10:29:08;10.25;;;2.20;;
73456;SDS011;61691;53.072;6.582;2023-06-04T10:31:37;10.38;;;2.03;;
73456;SDS011;61691;53.072;6.582;2023-06-04T10:34:04;14.25;;;2.28;;
73456;SDS011;61691;53.072;6.582;2023-06-04T10:36:31;10.50;;;1.90;;
73456;SDS011;61691;53.072;6.582;2023-06-04T10:39:12;9.20;;;2.05;;
73456;SDS011;61691;53.072;6.582;2023-06-04T10:41:39;13.73;;;2.05;;
73456;SDS011;61691;53.072;6.582;2023-06-04T10:44:06;13.50;;;2.17;;
73456;SDS011;61691;53.072;6.582;2023-06-04T10:46:39;10.68;;;2.10;;
73456;SDS011;61691;53.072;6.582;2023-06-04T10:49:09;10.45;;;1.90;;
73456;SDS011;61691;53.072;6.582;2023-06-04T10:51:38;7.43;;;1.98;;
73456;SDS011;61691;53.072;6.582;2023-06-04T10:54:05;11.00;;;2.00;;
73456;SDS011;61691;53.072;6.582;2023-06-04T10:56:33;12.38;;;1.90;;
73456;SDS011;61691;53.072;6.582;2023-06-04T10:59:14;9.48;;;2.00;;
73456;SDS011;61691;53.072;6.582;2023-06-04T11:01:42;11.25;;;2.03;;
73456;SDS011;61691;53.072;6.582;2023-06-04T11:04:21;11.40;;;2.03;;
73456;SDS011;61691;53.072;6.582;2023-06-04T11:07:05;8.68;;;2.05;;
73456;SDS011;61691;53.072;6.582;2023-06-04T11:09:57;11.63;;;2.10;;
73456;SDS011;61691;53.072;6.582;2023-06-04T11:12:22;10.32;;;1.83;;
73456;SDS011;61691;53.072;6.582;2023-06-04T11:14:58;8.48;;;2.10;;
73456;SDS011;61691;53.072;6.582;2023-06-04T11:17:26;9.65;;;1.95;;
73456;SDS011;61691;53.072;6.582;2023-06-04T11:19:53;9.48;;;1.85;;
73456;SDS011;61691;53.072;6.582;2023-06-04T11:22:22;11.13;;;1.98;;
73456;SDS011;61691;53.072;6.582;2023-06-04T11:24:49;11.25;;;2.15;;
73456;SDS011;61691;53.072;6.582;2023-06-04T11:27:25;9.68;;;1.83;;
73456;SDS011;61691;53.072;6.582;2023-06-04T11:30:02;11.43;;;2.00;;
73456;SDS011;61691;53.072;6.582;2023-06-04T11:32:29;8.38;;;1.85;;
73456;SDS011;61691;53.072;6.582;2023-06-04T11:35:03;13.32;;;2.20;;
73456;SDS011;61691;53.072;6.582;2023-06-04T11:37:32;8.50;;;1.92;;
73456;SDS011;61691;53.072;6.582;2023-06-04T11:40:00;9.18;;;1.80;;
73456;SDS011;61691;53.072;6.582;2023-06-04T11:42:27;11.13;;;2.20;;
73456;SDS011;61691;53.072;6.582;2023-06-04T11:44:56;11.18;;;2.05;;
73456;SDS011;61691;53.072;6.582;2023-06-04T11:47:23;8.48;;;1.92;;
73456;SDS011;61691;53.072;6.582;2023-06-04T11:49:57;13.45;;;2.38;;
73456;SDS011;61691;53.072;6.582;2023-06-04T11:52:24;9.95;;;2.22;;
73456;SDS011;61691;53.072;6.582;2023-06-04T11:54:51;8.68;;;1.80;;
73456;SDS011;61691;53.072;6.582;2023-06-04T11:57:18;6.82;;;1.70;;
73456;SDS011;61691;53.072;6.582;2023-06-04T11:59:45;5.95;;;1.70;;
73456;SDS011;61691;53.072;6.582;2023-06-04T12:02:12;8.15;;;1.95;;
73456;SDS011;61691;53.072;6.582;2023-06-04T12:04:39;14.02;;;2.25;;
73456;SDS011;61691;53.072;6.582;2023-06-04T12:07:06;9.52;;;2.15;;
73456;SDS011;61691;53.072;6.582;2023-06-04T12:09:35;10.77;;;2.50;;
73456;SDS011;61691;53.072;6.582;2023-06-04T12:12:03;12.25;;;2.17;;
73456;SDS011;61691;53.072;6.582;2023-06-04T12:14:31;9.25;;;2.15;;
73456;SDS011;61691;53.072;6.582;2023-06-04T12:16:59;11.38;;;2.17;;
73456;SDS011;61691;53.072;6.582;2023-06-04T12:19:27;8.43;;;1.90;;
73456;SDS011;61691;53.072;6.582;2023-06-04T12:22:01;10.05;;;2.17;;
73456;SDS011;61691;53.072;6.582;2023-06-04T12:24:31;8.77;;;1.80;;
73456;SDS011;61691;53.072;6.582;2023-06-04T12:27:01;11.40;;;2.00;;
73456;SDS011;61691;53.072;6.582;2023-06-04T12:29:29;11.32;;;2.00;;
73456;SDS011;61691;53.072;6.582;2023-06-04T12:32:08;10.63;;;2.10;;
73456;SDS011;61691;53.072;6.582;2023-06-04T12:34:38;13.00;;;2.10;;
73456;SDS011;61691;53.072;6.582;2023-06-04T12:37:07;10.02;;;2.00;;
73456;SDS011;61691;53.072;6.582;2023-06-04T12:39:35;9.82;;;2.05;;
73456;SDS011;61691;53.072;6.582;2023-06-04T12:42:06;9.57;;;1.83;;
73456;SDS011;61691;53.072;6.582;2023-06-04T12:44:40;9.82;;;1.92;;
73456;SDS011;61691;53.072;6.582;2023-06-04T12:47:08;13.30;;;2.20;;
73456;SDS011;61691;53.072;6.582;2023-06-04T12:49:35;10.30;;;2.08;;
73456;SDS011;61691;53.072;6.582;2023-06-04T12:52:01;10.75;;;1.88;;
73456;SDS011;61691;53.072;6.582;2023-06-04T12:54:29;8.18;;;1.80;;
73456;SDS011;61691;53.072;6.582;2023-06-04T12:56:56;12.10;;;2.33;;
73456;SDS011;61691;53.072;6.582;2023-06-04T12:59:24;9.50;;;2.00;;
73456;SDS011;61691;53.072;6.582;2023-06-04T13:01:52;8.48;;;2.05;;
73456;SDS011;61691;53.072;6.582;2023-06-04T13:04:20;10.20;;;1.92;;
73456;SDS011;61691;53.072;6.582;2023-06-04T13:06:46;11.45;;;2.20;;
73456;SDS011;61691;53.072;6.582;2023-06-04T13:09:13;9.23;;;2.22;;
73456;SDS011;61691;53.072;6.582;2023-06-04T13:11:43;10.63;;;2.10;;
73456;SDS011;61691;53.072;6.582;2023-06-04T13:14:10;11.35;;;2.22;;
73456;SDS011;61691;53.072;6.582;2023-06-04T13:16:38;13.57;;;2.33;;
73456;SDS011;61691;53.072;6.582;2023-06-04T13:19:05;7.85;;;1.95;;
73456;SDS011;61691;53.072;6.582;2023-06-04T13:21:33;10.70;;;2.38;;
73456;SDS011;61691;53.072;6.582;2023-06-04T13:24:00;9.88;;;2.17;;
73456;SDS011;61691;53.072;6.582;2023-06-04T13:26:27;10.50;;;2.10;;
73456;SDS011;61691;53.072;6.582;2023-06-04T13:28:54;7.40;;;1.73;;
73456;SDS011;61691;53.072;6.582;2023-06-04T13:31:20;12.07;;;2.20;;
73456;SDS011;61691;53.072;6.582;2023-06-04T13:33:47;9.10;;;2.00;;
73456;SDS011;61691;53.072;6.582;2023-06-04T13:36:14;11.18;;;2.10;;
73456;SDS011;61691;53.072;6.582;2023-06-04T13:38:41;8.25;;;2.10;;
73456;SDS011;61691;53.072;6.582;2023-06-04T13:41:08;12.43;;;2.53;;
73456;SDS011;61691;53.072;6.582;2023-06-04T13:43:35;8.70;;;1.98;;
73456;SDS011;61691;53.072;6.582;2023-06-04T13:46:03;11.95;;;2.45;;
73456;SDS011;61691;53.072;6.582;2023-06-04T13:48:30;13.25;;;2.92;;
73456;SDS011;61691;53.072;6.582;2023-06-04T13:50:57;11.30;;;2.15;;
73456;SDS011;61691;53.072;6.582;2023-06-04T13:53:24;9.80;;;1.90;;
73456;SDS011;61691;53.072;6.582;2023-06-04T13:55:51;8.38;;;1.98;;
73456;SDS011;61691;53.072;6.582;2023-06-04T13:58:24;9.82;;;2.20;;
73456;SDS011;61691;53.072;6.582;2023-06-04T14:00:52;12.85;;;2.38;;
73456;SDS011;61691;53.072;6.582;2023-06-04T14:03:19;13.18;;;2.47;;
73456;SDS011;61691;53.072;6.582;2023-06-04T14:05:46;8.85;;;2.08;;
73456;SDS011;61691;53.072;6.582;2023-06-04T14:08:13;11.95;;;2.10;;
73456;SDS011;61691;53.072;6.582;2023-06-04T14:10:40;10.23;;;2.15;;
73456;SDS011;61691;53.072;6.582;2023-06-04T14:13:08;11.90;;;2.45;;
73456;SDS011;61691;53.072;6.582;2023-06-04T14:15:35;10.60;;;1.98;;
73456;SDS011;61691;53.072;6.582;2023-06-04T14:18:02;8.23;;;2.22;;
73456;SDS011;61691;53.072;6.582;2023-06-04T14:20:30;10.13;;;1.88;;
73456;SDS011;61691;53.072;6.582;2023-06-04T14:22:57;10.45;;;2.17;;
73456;SDS011;61691;53.072;6.582;2023-06-04T14:25:24;9.55;;;2.22;;
73456;SDS011;61691;53.072;6.582;2023-06-04T14:27:50;10.52;;;1.98;;
73456;SDS011;61691;53.072;6.582;2023-06-04T14:30:17;12.15;;;2.17;;
73456;SDS011;61691;53.072;6.582;2023-06-04T14:32:44;10.43;;;2.08;;
73456;SDS011;61691;53.072;6.582;2023-06-04T14:35:11;9.18;;;1.85;;
73456;SDS011;61691;53.072;6.582;2023-06-04T14:37:39;8.88;;;1.92;;
73456;SDS011;61691;53.072;6.582;2023-06-04T14:40:05;14.18;;;2.85;;
73456;SDS011;61691;53.072;6.582;2023-06-04T14:42:32;10.75;;;2.22;;
73456;SDS011;61691;53.072;6.582;2023-06-04T14:44:59;13.68;;;2.28;;
73456;SDS011;61691;53.072;6.582;2023-06-04T14:47:26;9.70;;;2.20;;
73456;SDS011;61691;53.072;6.582;2023-06-04T14:49:53;11.00;;;2.00;;
73456;SDS011;61691;53.072;6.582;2023-06-04T14:52:20;13.82;;;2.35;;
73456;SDS011;61691;53.072;6.582;2023-06-04T14:54:47;11.02;;;2.22;;